GMMN/CMN METAR and TAF weather

Enter ICAO airport designator
Station Type Date Time Source
GMMN METAR 2022/07/01 01:30 UTC NOAA

GMMN 010130Z 03004KT 9999 BKN013 18/14 Q1015 NOSIG


Station Type Date Time Source
GMMN Decoded METAR 2022/07/01 01:30 UTC NOAA

Nouasseur, Morocco (GMMN) 33-22N 007-35W 206M
Jun 30, 2022 - 09:30 PM EDT / 2022.07.01 0130 UTC
Wind: from the NNE (030 degrees) at 5 MPH (4 KT):0
Visibility: greater than 7 mile(s):0
Sky conditions: mostly cloudy
Temperature: 64 F (18 C)
Dew Point: 57 F (14 C)
Relative Humidity: 77%
Pressure (altimeter): 29.97 in. Hg (1015 hPa)
ob: GMMN 010130Z 03004KT 9999 BKN013 18/14 Q1015 NOSIG
cycle: 1

Station Type Date Time Source
GMMN TAF 2022/06/30 18:18 UTC NOAA

TAF GMMN 301700Z 3018/0124 36012KT 9999 FEW016
BECMG 3019/3021 36004KT
BECMG 0111/0113 36012KT CAVOK

Example: see airport list